Time;durP1;ratioP1;P1;durP2;ratioP2;P2;SDS_P1;SDS_P2;PMS_P1;PMS_P2;Temp;Humidity;BMP_temperature;BMP_pressure;BME280_temperature;BME280_humidity;BME280_pressure;Samples;Min_cycle;Max_cycle;Signal;HPM_P1;HPM_P2
2022/08/06 00:05:09;;;;;;;5.03;4.53;;;;;;;;;;10390067;28;20057;-84
2022/08/06 00:10:20;;;;;;;5.40;4.18;;;;;;;;;;10365011;28;20061;-82
2022/08/06 00:15:20;;;;;;;5.47;4.28;;;;;;;;;;10321009;28;20049;-80
2022/08/06 00:20:21;;;;;;;5.15;3.90;;;;;;;;;;10377143;28;20060;-79
2022/08/06 00:25:22;;;;;;;4.47;3.77;;;;;;;;;;10380803;28;20129;-79
2022/08/06 00:30:25;;;;;;;4.15;3.75;;;;;;;;;;10379483;28;20061;-80
2022/08/06 00:35:25;;;;;;;4.93;4.05;;;;;;;;;;10367484;28;20141;-79
2022/08/06 00:40:29;;;;;;;6.43;3.87;;;;;;;;;;10369055;28;20106;-79
2022/08/06 00:45:49;;;;;;;4.00;3.33;;;;;;;;;;10364179;28;21097;-79
2022/08/06 00:50:49;;;;;;;3.60;3.00;;;;;;;;;;10333982;28;20112;-79
2022/08/06 00:55:51;;;;;;;4.77;3.30;;;;;;;;;;10370191;28;20364;-79
2022/08/06 01:00:51;;;;;;;4.72;3.65;;;;;;;;;;10327073;28;20141;-79
2022/08/06 01:05:54;;;;;;;3.85;2.60;;;;;;;;;;10374822;28;20041;-81
2022/08/06 01:10:55;;;;;;;3.65;2.78;;;;;;;;;;10340133;28;20884;-80
2022/08/06 01:16:09;;;;;;;3.43;2.50;;;;;;;;;;10365998;28;20057;-80
2022/08/06 01:21:17;;;;;;;3.70;2.72;;;;;;;;;;10397310;28;20022;-79
2022/08/06 01:26:40;;;;;;;3.08;2.78;;;;;;;;;;10407139;28;20073;-78
2022/08/06 01:31:53;;;;;;;3.38;2.58;;;;;;;;;;10351810;28;20144;-80
2022/08/06 01:36:53;;;;;;;;;;;;;;;;;;10366187;28;20064;-80
2022/08/06 01:41:54;;;;;;;2.90;2.60;;;;;;;;;;10366921;28;19944;-80
2022/08/06 01:46:57;;;;;;;3.75;2.50;;;;;;;;;;10337627;28;20508;-80
2022/08/06 01:51:59;;;;;;;2.90;2.65;;;;;;;;;;10348723;28;20477;-81
2022/08/06 01:57:00;;;;;;;3.38;3.15;;;;;;;;;;10350191;28;20056;-82
2022/08/06 02:02:04;;;;;;;4.35;3.25;;;;;;;;;;10359115;28;20055;-80
2022/08/06 02:07:06;;;;;;;3.75;3.15;;;;;;;;;;10347791;28;20061;-79
2022/08/06 02:12:08;;;;;;;3.95;3.08;;;;;;;;;;10304216;28;20046;-78
2022/08/06 02:17:11;;;;;;;3.50;2.80;;;;;;;;;;10348021;28;20046;-79
2022/08/06 02:22:11;;;;;;;3.38;3.08;;;;;;;;;;10338279;28;20042;-80
2022/08/06 02:27:12;;;;;;;3.88;3.53;;;;;;;;;;10357524;28;20054;-81
2022/08/06 02:32:16;;;;;;;3.70;3.40;;;;;;;;;;10348714;28;20054;-81
2022/08/06 02:37:26;;;;;;;3.72;3.25;;;;;;;;;;10354410;28;20065;-82
2022/08/06 02:42:47;;;;;;;3.80;3.50;;;;;;;;;;10360081;28;20046;-81
2022/08/06 02:48:04;;;;;;;4.82;3.85;;;;;;;;;;10343058;28;20241;-81
2022/08/06 02:53:08;;;;;;;3.85;3.25;;;;;;;;;;10336308;28;20054;-82
2022/08/06 02:58:29;;;;;;;4.68;3.22;;;;;;;;;;10360567;28;20054;-80
2022/08/06 03:03:31;;;;;;;3.97;3.30;;;;;;;;;;10351279;28;20047;-79
2022/08/06 03:08:34;;;;;;;4.45;3.70;;;;;;;;;;10355928;28;20046;-81
2022/08/06 03:13:37;;;;;;;5.30;3.40;;;;;;;;;;10362719;28;20057;-79
2022/08/06 03:18:40;;;;;;;4.65;3.60;;;;;;;;;;10364577;28;20105;-81
2022/08/06 03:23:41;;;;;;;3.88;3.50;;;;;;;;;;10350438;28;20046;-80
2022/08/06 03:28:42;;;;;;;3.95;3.55;;;;;;;;;;10343838;28;20046;-82
2022/08/06 03:33:44;;;;;;;3.83;3.40;;;;;;;;;;10383985;28;20565;-80
2022/08/06 03:38:54;;;;;;;4.88;3.67;;;;;;;;;;10385926;28;20042;-85
2022/08/06 03:43:54;;;;;;;3.75;3.45;;;;;;;;;;10370436;28;20049;-82
2022/08/06 03:48:58;;;;;;;4.40;4.00;;;;;;;;;;10339248;28;20798;-80
2022/08/06 03:54:00;;;;;;;4.25;3.85;;;;;;;;;;10345266;28;20067;-82
2022/08/06 03:59:01;;;;;;;;;;;;;;;;;;10338450;28;20367;-82
2022/08/06 04:04:04;;;;;;;3.45;3.15;;;;;;;;;;10376988;28;19922;-81
2022/08/06 04:09:05;;;;;;;5.93;4.22;;;;;;;;;;10334109;28;20110;-78
2022/08/06 04:14:05;;;;;;;4.50;4.10;;;;;;;;;;10354248;28;20122;-78
2022/08/06 04:19:08;;;;;;;5.72;3.80;;;;;;;;;;10344735;28;20566;-78
2022/08/06 04:24:09;;;;;;;3.92;3.63;;;;;;;;;;10367856;28;20061;-78
2022/08/06 04:29:11;;;;;;;5.95;3.90;;;;;;;;;;10364947;28;20056;-79
2022/08/06 04:34:13;;;;;;;3.70;3.40;;;;;;;;;;10395792;28;20049;-79
2022/08/06 04:39:14;;;;;;;4.72;3.72;;;;;;;;;;10368820;28;20056;-78
2022/08/06 04:44:15;;;;;;;4.40;3.63;;;;;;;;;;10347063;28;20077;-77
2022/08/06 04:49:16;;;;;;;3.90;3.50;;;;;;;;;;10354044;28;20105;-77
2022/08/06 04:54:18;;;;;;;4.80;3.60;;;;;;;;;;10358255;28;20046;-78
2022/08/06 04:59:18;;;;;;;4.28;3.60;;;;;;;;;;10346463;28;20396;-78
2022/08/06 05:04:18;;;;;;;3.47;3.15;;;;;;;;;;10360914;28;20517;-79
2022/08/06 05:09:24;;;;;;;4.53;3.43;;;;;;;;;;10340198;28;20038;-78
2022/08/06 05:14:28;;;;;;;4.43;2.90;;;;;;;;;;10356996;28;20292;-78
2022/08/06 05:19:33;;;;;;;5.22;3.00;;;;;;;;;;10353961;28;20044;-78
2022/08/06 05:24:35;;;;;;;3.75;2.60;;;;;;;;;;10352284;28;20049;-77
2022/08/06 05:29:35;;;;;;;2.75;2.47;;;;;;;;;;10348492;28;20046;-79
2022/08/06 05:34:36;;;;;;;2.20;2.00;;;;;;;;;;10343372;28;20054;-78
2022/08/06 05:39:38;;;;;;;2.72;1.90;;;;;;;;;;10352224;28;20050;-77
2022/08/06 05:44:38;;;;;;;2.28;2.08;;;;;;;;;;10352795;28;20244;-78
2022/08/06 05:49:42;;;;;;;2.90;1.90;;;;;;;;;;10342040;28;20038;-78
2022/08/06 05:54:46;;;;;;;2.95;2.30;;;;;;;;;;10366397;28;20038;-77
2022/08/06 05:59:50;;;;;;;1.60;1.50;;;;;;;;;;10366784;28;20050;-78
2022/08/06 06:04:51;;;;;;;2.97;1.95;;;;;;;;;;10363048;28;20057;-77
2022/08/06 06:09:51;;;;;;;1.45;1.30;;;;;;;;;;10350930;28;20056;-81
2022/08/06 06:14:52;;;;;;;2.25;1.45;;;;;;;;;;10360593;28;20058;-78
2022/08/06 06:19:56;;;;;;;3.23;1.70;;;;;;;;;;10380648;28;20046;-78
2022/08/06 06:24:57;;;;;;;1.75;1.63;;;;;;;;;;10380523;28;20312;-79
2022/08/06 06:30:03;;;;;;;2.07;1.20;;;;;;;;;;10376087;28;20048;-78
2022/08/06 06:35:09;;;;;;;1.52;1.40;;;;;;;;;;10386847;28;20050;-78
2022/08/06 06:40:15;;;;;;;1.65;1.25;;;;;;;;;;10368775;28;20054;-77
2022/08/06 06:45:19;;;;;;;2.75;1.23;;;;;;;;;;10360743;28;20409;-77
2022/08/06 06:50:25;;;;;;;3.65;1.15;;;;;;;;;;10359129;28;20053;-78
2022/08/06 06:55:34;;;;;;;1.48;1.23;;;;;;;;;;10355934;28;20043;-77
2022/08/06 07:00:36;;;;;;;2.03;1.23;;;;;;;;;;10358227;28;20443;-77
2022/08/06 07:05:40;;;;;;;2.65;1.42;;;;;;;;;;10338065;28;20048;-78
2022/08/06 07:10:42;;;;;;;1.77;1.08;;;;;;;;;;10349816;28;20382;-78
2022/08/06 07:15:42;;;;;;;2.50;1.40;;;;;;;;;;10354113;28;20056;-78
2022/08/06 07:20:43;;;;;;;1.55;1.00;;;;;;;;;;10331752;28;20056;-79
2022/08/06 07:25:45;;;;;;;2.08;1.00;;;;;;;;;;10363839;28;20504;-78
2022/08/06 07:30:47;;;;;;;2.28;1.13;;;;;;;;;;10360912;28;20080;-78
2022/08/06 07:35:50;;;;;;;1.35;1.00;;;;;;;;;;10346397;28;20121;-78
2022/08/06 07:40:54;;;;;;;1.63;1.30;;;;;;;;;;10360837;28;20041;-78
2022/08/06 07:45:56;;;;;;;1.73;0.80;;;;;;;;;;10349251;28;20064;-78
2022/08/06 07:50:58;;;;;;;1.98;1.00;;;;;;;;;;10359248;28;20076;-76
2022/08/06 07:55:59;;;;;;;1.95;1.00;;;;;;;;;;10348020;28;20454;-78
2022/08/06 08:01:00;;;;;;;2.38;1.38;;;;;;;;;;10356479;28;20048;-79
2022/08/06 08:06:18;;;;;;;2.55;1.02;;;;;;;;;;10349501;28;20108;-78
2022/08/06 08:11:20;;;;;;;1.70;1.10;;;;;;;;;;10360309;28;20152;-78
2022/08/06 08:16:21;;;;;;;1.35;1.23;;;;;;;;;;10362853;28;20412;-79
2022/08/06 08:21:23;;;;;;;2.28;1.20;;;;;;;;;;10351818;28;20041;-77
2022/08/06 08:26:23;;;;;;;2.83;1.20;;;;;;;;;;10360205;28;20053;-78
2022/08/06 08:31:23;;;;;;;3.13;1.10;;;;;;;;;;10370134;28;20056;-78
2022/08/06 08:36:24;;;;;;;2.23;0.83;;;;;;;;;;10395058;28;20128;-79
2022/08/06 08:41:34;;;;;;;1.50;0.90;;;;;;;;;;10376184;28;20125;-78
2022/08/06 08:46:37;;;;;;;2.13;0.90;;;;;;;;;;10341160;28;20058;-80
2022/08/06 08:51:39;;;;;;;2.05;1.10;;;;;;;;;;10362172;28;20045;-79
2022/08/06 08:56:40;;;;;;;1.30;1.20;;;;;;;;;;10368617;28;20121;-79
2022/08/06 09:01:40;;;;;;;2.97;1.10;;;;;;;;;;10367375;28;20046;-78
2022/08/06 09:06:41;;;;;;;3.53;1.15;;;;;;;;;;10356476;28;20481;-78
2022/08/06 09:11:41;;;;;;;2.55;1.00;;;;;;;;;;10357605;28;20049;-78
2022/08/06 09:16:42;;;;;;;2.20;1.10;;;;;;;;;;10355775;28;20063;-80
2022/08/06 09:21:44;;;;;;;2.13;1.10;;;;;;;;;;10336860;28;20145;-78
2022/08/06 09:27:07;;;;;;;1.67;1.00;;;;;;;;;;10351702;28;20057;-78
2022/08/06 09:32:09;;;;;;;1.98;1.10;;;;;;;;;;10354501;28;20189;-77
2022/08/06 09:37:10;;;;;;;2.10;1.20;;;;;;;;;;10339996;28;20560;-77
2022/08/06 09:42:10;;;;;;;1.25;0.85;;;;;;;;;;10340529;28;20044;-78
2022/08/06 09:47:18;;;;;;;2.00;1.10;;;;;;;;;;10350965;28;20513;-77
2022/08/06 09:52:20;;;;;;;1.20;1.10;;;;;;;;;;10350802;28;21181;-79
2022/08/06 09:57:22;;;;;;;3.17;1.23;;;;;;;;;;10354767;28;20142;-79
2022/08/06 10:02:22;;;;;;;1.98;1.35;;;;;;;;;;10350423;28;20070;-78
2022/08/06 10:07:30;;;;;;;1.50;1.03;;;;;;;;;;10345325;28;20182;-79
2022/08/06 10:12:31;;;;;;;1.38;1.08;;;;;;;;;;10352435;28;20419;-80
2022/08/06 10:17:31;;;;;;;2.97;1.13;;;;;;;;;;10351920;28;20152;-78
2022/08/06 10:22:31;;;;;;;2.53;1.20;;;;;;;;;;10343583;28;20823;-80
2022/08/06 10:27:34;;;;;;;1.20;0.80;;;;;;;;;;10357624;28;20139;-78
2022/08/06 10:32:43;;;;;;;2.60;1.00;;;;;;;;;;10331902;28;20708;-77
2022/08/06 10:37:45;;;;;;;1.27;1.10;;;;;;;;;;10374079;28;20375;-79
2022/08/06 10:42:46;;;;;;;1.52;0.80;;;;;;;;;;10338600;28;20133;-77
2022/08/06 10:47:46;;;;;;;1.23;1.02;;;;;;;;;;10356819;28;20148;-78
2022/08/06 10:52:48;;;;;;;1.42;0.90;;;;;;;;;;10354851;28;20501;-78
2022/08/06 10:57:49;;;;;;;2.03;1.10;;;;;;;;;;10354396;28;20129;-78
2022/08/06 11:02:56;;;;;;;1.87;1.07;;;;;;;;;;10353315;28;20283;-79
2022/08/06 11:08:04;;;;;;;1.73;1.30;;;;;;;;;;10353673;28;20677;-77
2022/08/06 11:13:26;;;;;;;1.77;1.00;;;;;;;;;;10359921;28;20080;-77
2022/08/06 11:18:27;;;;;;;1.00;0.90;;;;;;;;;;10342954;28;20093;-78
2022/08/06 11:23:29;;;;;;;2.20;0.82;;;;;;;;;;10354897;28;20124;-79
2022/08/06 11:28:32;;;;;;;3.08;1.00;;;;;;;;;;10340232;28;20038;-77
2022/08/06 11:33:33;;;;;;;1.73;1.05;;;;;;;;;;10343206;28;20397;-77
2022/08/06 11:38:42;;;;;;;1.77;1.03;;;;;;;;;;10334791;28;20052;-77
2022/08/06 11:43:47;;;;;;;1.90;0.90;;;;;;;;;;10360887;28;20116;-80
2022/08/06 11:49:03;;;;;;;2.75;1.05;;;;;;;;;;10361880;28;20049;-77
2022/08/06 11:54:14;;;;;;;1.48;0.70;;;;;;;;;;10348328;28;20048;-77
2022/08/06 11:59:17;;;;;;;3.30;0.90;;;;;;;;;;10367123;28;20074;-77
2022/08/06 12:04:36;;;;;;;0.95;0.85;;;;;;;;;;10353914;28;20058;-78
2022/08/06 12:09:37;;;;;;;1.60;0.70;;;;;;;;;;10340291;28;20062;-78
2022/08/06 12:14:39;;;;;;;1.48;0.80;;;;;;;;;;10354176;28;20042;-77
2022/08/06 12:19:44;;;;;;;3.10;1.00;;;;;;;;;;10366886;28;20045;-78
2022/08/06 12:24:45;;;;;;;1.10;1.00;;;;;;;;;;10365816;28;20262;-78
2022/08/06 12:29:46;;;;;;;0.90;0.90;;;;;;;;;;10376365;28;20048;-77
2022/08/06 12:34:48;;;;;;;1.10;1.00;;;;;;;;;;10365386;28;20091;-77
2022/08/06 12:45:10;;;;;;;1.27;0.70;;;;;;;;;;10367394;28;19926;-77
2022/08/06 12:50:17;;;;;;;1.13;0.80;;;;;;;;;;10353428;28;20061;-77
2022/08/06 12:55:18;;;;;;;1.48;0.80;;;;;;;;;;10358166;28;20046;-77
2022/08/06 13:00:18;;;;;;;1.17;0.90;;;;;;;;;;10336573;28;20058;-77
2022/08/06 13:05:19;;;;;;;0.93;0.75;;;;;;;;;;10318439;28;20050;-76
2022/08/06 13:10:20;;;;;;;0.70;0.70;;;;;;;;;;10359114;28;20136;-77
2022/08/06 13:15:20;;;;;;;0.93;0.83;;;;;;;;;;10361032;28;20129;-77
2022/08/06 13:20:21;;;;;;;0.98;0.80;;;;;;;;;;10359721;28;20362;-77
2022/08/06 13:25:21;;;;;;;0.60;0.60;;;;;;;;;;10354234;28;20058;-77
2022/08/06 13:30:29;;;;;;;1.35;0.75;;;;;;;;;;10371831;28;20042;-77
2022/08/06 13:35:29;;;;;;;2.15;0.80;;;;;;;;;;10368742;28;20038;-76
2022/08/06 13:40:45;;;;;;;1.17;0.90;;;;;;;;;;10379905;28;20132;-78
2022/08/06 13:45:46;;;;;;;1.33;0.70;;;;;;;;;;10365898;28;20060;-78
2022/08/06 13:50:47;;;;;;;3.50;1.17;;;;;;;;;;10361867;28;20053;-78
2022/08/06 13:55:50;;;;;;;1.00;0.80;;;;;;;;;;10386195;28;20074;-77
2022/08/06 14:00:50;;;;;;;1.73;0.90;;;;;;;;;;10370489;28;20469;-78
2022/08/06 14:05:51;;;;;;;0.87;0.80;;;;;;;;;;10359043;28;20096;-77
2022/08/06 14:10:53;;;;;;;2.03;0.70;;;;;;;;;;10353192;28;20129;-77
2022/08/06 14:15:54;;;;;;;2.00;0.90;;;;;;;;;;10357025;28;20054;-79
2022/08/06 14:20:54;;;;;;;0.70;0.70;;;;;;;;;;10354199;28;20038;-78
2022/08/06 14:25:55;;;;;;;1.23;0.80;;;;;;;;;;10358193;28;20065;-77
2022/08/06 14:30:55;;;;;;;1.27;0.80;;;;;;;;;;10345642;28;20467;-78
2022/08/06 14:35:56;;;;;;;1.30;0.80;;;;;;;;;;10379904;28;20042;-78
2022/08/06 14:46:15;;;;;;;1.15;0.90;;;;;;;;;;10344036;28;20197;-81
2022/08/06 14:51:15;;;;;;;1.07;0.77;;;;;;;;;;10343010;28;20180;-77
2022/08/06 14:56:16;;;;;;;1.30;0.93;;;;;;;;;;10349243;28;20050;-78
2022/08/06 15:01:16;;;;;;;1.80;1.20;;;;;;;;;;10337006;28;20102;-77
2022/08/06 15:06:17;;;;;;;1.23;1.10;;;;;;;;;;10328586;28;20046;-77
2022/08/06 15:11:18;;;;;;;0.67;0.67;;;;;;;;;;10354705;28;20262;-78
2022/08/06 15:16:21;;;;;;;1.17;1.00;;;;;;;;;;10344533;28;20168;-77
2022/08/06 15:21:22;;;;;;;1.42;0.88;;;;;;;;;;10331785;28;20038;-77
2022/08/06 15:26:24;;;;;;;0.80;0.80;;;;;;;;;;10348647;28;20064;-77
2022/08/06 15:31:24;;;;;;;2.17;1.10;;;;;;;;;;10341108;28;20045;-79
2022/08/06 15:36:24;;;;;;;1.37;1.17;;;;;;;;;;10356306;28;20086;-77
2022/08/06 15:41:27;;;;;;;1.10;1.00;;;;;;;;;;10345866;28;20061;-77
2022/08/06 15:46:27;;;;;;;0.70;0.70;;;;;;;;;;10345348;28;20052;-77
2022/08/06 15:51:27;;;;;;;1.47;0.70;;;;;;;;;;10346695;28;20052;-78
2022/08/06 15:56:32;;;;;;;1.90;0.90;;;;;;;;;;10360854;28;20034;-78
2022/08/06 16:01:33;;;;;;;0.80;0.80;;;;;;;;;;10350075;28;20475;-77
2022/08/06 16:06:34;;;;;;;2.75;0.90;;;;;;;;;;10357781;28;20486;-77
2022/08/06 16:11:34;;;;;;;1.80;1.00;;;;;;;;;;10349796;28;20049;-77
2022/08/06 16:16:35;;;;;;;2.00;0.80;;;;;;;;;;10361092;28;20927;-79
2022/08/06 16:21:35;;;;;;;1.37;0.90;;;;;;;;;;10345482;28;20376;-78
2022/08/06 16:26:36;;;;;;;1.30;1.00;;;;;;;;;;10364223;28;20041;-79
2022/08/06 16:31:36;;;;;;;1.47;0.97;;;;;;;;;;10364385;28;20053;-79
2022/08/06 16:36:37;;;;;;;1.00;0.70;;;;;;;;;;10369885;28;20034;-78
2022/08/06 16:41:37;;;;;;;0.90;0.80;;;;;;;;;;10389450;28;20654;-77
2022/08/06 16:46:37;;;;;;;1.20;0.87;;;;;;;;;;10345651;28;20041;-77
2022/08/06 16:51:38;;;;;;;1.13;0.90;;;;;;;;;;10373076;28;20360;-78
2022/08/06 16:56:38;;;;;;;4.75;3.00;;;;;;;;;;10346041;28;20433;-79
2022/08/06 17:01:39;;;;;;;1.37;1.00;;;;;;;;;;10361201;28;20045;-79
2022/08/06 17:06:39;;;;;;;0.80;0.70;;;;;;;;;;10364110;28;20057;-78
2022/08/06 17:11:40;;;;;;;1.10;0.90;;;;;;;;;;10370617;28;20057;-78
2022/08/06 17:16:41;;;;;;;1.13;0.90;;;;;;;;;;10403609;28;20288;-78
2022/08/06 17:21:41;;;;;;;1.00;0.80;;;;;;;;;;10370581;28;20448;-77
2022/08/06 17:26:42;;;;;;;1.47;0.80;;;;;;;;;;10351593;28;20064;-77
2022/08/06 17:31:43;;;;;;;3.23;0.80;;;;;;;;;;10344861;28;20780;-80
2022/08/06 17:36:45;;;;;;;;;;;;;;;;;;10337492;28;20042;-77
2022/08/06 17:41:45;;;;;;;1.20;0.70;;;;;;;;;;10339904;28;19913;-78
2022/08/06 17:46:46;;;;;;;1.10;0.90;;;;;;;;;;10340974;28;20129;-79
2022/08/06 17:51:47;;;;;;;0.82;0.82;;;;;;;;;;10337222;28;20057;-77
2022/08/06 17:56:47;;;;;;;1.17;0.60;;;;;;;;;;10358130;28;20050;-79
2022/08/06 18:01:48;;;;;;;2.90;1.02;;;;;;;;;;10334485;28;20053;-77
2022/08/06 18:06:48;;;;;;;1.17;1.08;;;;;;;;;;10357415;28;20402;-78
2022/08/06 18:11:49;;;;;;;2.40;1.00;;;;;;;;;;10353028;28;20070;-78
2022/08/06 18:16:49;;;;;;;1.00;0.90;;;;;;;;;;10360059;28;20034;-78
2022/08/06 18:21:51;;;;;;;1.73;1.00;;;;;;;;;;10344392;28;20138;-79
2022/08/06 18:26:52;;;;;;;1.10;1.00;;;;;;;;;;10391217;28;20105;-78
2022/08/06 18:31:52;;;;;;;1.07;0.97;;;;;;;;;;10390934;28;20063;-78
2022/08/06 18:36:53;;;;;;;2.30;1.10;;;;;;;;;;10340359;28;20069;-78
2022/08/06 18:41:53;;;;;;;1.90;1.20;;;;;;;;;;10358539;28;20140;-78
2022/08/06 18:46:53;;;;;;;1.43;1.10;;;;;;;;;;10351529;28;20495;-78
2022/08/06 18:51:58;;;;;;;2.35;1.25;;;;;;;;;;10351354;28;20050;-78
2022/08/06 18:56:59;;;;;;;2.33;1.30;;;;;;;;;;10349507;28;20548;-79
2022/08/06 19:01:59;;;;;;;1.40;1.10;;;;;;;;;;10360166;28;20136;-78
2022/08/06 19:07:01;;;;;;;3.03;1.38;;;;;;;;;;10366965;28;20054;-78
2022/08/06 19:12:09;;;;;;;1.43;1.10;;;;;;;;;;10370339;28;20045;-81
2022/08/06 19:17:10;;;;;;;1.52;1.00;;;;;;;;;;10364657;28;20175;-78
2022/08/06 19:22:11;;;;;;;1.17;0.95;;;;;;;;;;10366500;28;20086;-78
2022/08/06 19:27:25;;;;;;;1.55;1.10;;;;;;;;;;10365745;28;20049;-79
2022/08/06 19:32:25;;;;;;;2.03;1.30;;;;;;;;;;10362830;28;20125;-78
2022/08/06 19:37:27;;;;;;;1.23;1.00;;;;;;;;;;10365307;28;20273;-79
2022/08/06 19:42:28;;;;;;;1.30;0.88;;;;;;;;;;10374050;28;20049;-79
2022/08/06 19:47:29;;;;;;;1.75;0.82;;;;;;;;;;10357329;28;20113;-77
2022/08/06 19:52:29;;;;;;;1.00;0.90;;;;;;;;;;10354892;28;20101;-77
2022/08/06 19:57:29;;;;;;;1.25;0.90;;;;;;;;;;10349141;28;20048;-77
2022/08/06 20:02:30;;;;;;;1.45;1.00;;;;;;;;;;10305240;28;20042;-78
2022/08/06 20:07:32;;;;;;;0.88;0.80;;;;;;;;;;10324556;28;20098;-78
2022/08/06 20:12:33;;;;;;;1.23;0.80;;;;;;;;;;10360148;28;20050;-79
2022/08/06 20:17:34;;;;;;;1.42;0.98;;;;;;;;;;10363598;28;20273;-78
2022/08/06 20:22:35;;;;;;;1.30;1.00;;;;;;;;;;10368624;28;20054;-78
2022/08/06 20:27:36;;;;;;;1.48;1.00;;;;;;;;;;10360077;28;20046;-79
2022/08/06 20:32:37;;;;;;;4.30;1.10;;;;;;;;;;10370555;28;20042;-76
2022/08/06 20:37:37;;;;;;;2.60;1.15;;;;;;;;;;10350378;28;20037;-78
2022/08/06 20:42:38;;;;;;;1.15;1.05;;;;;;;;;;10358723;28;20038;-78
2022/08/06 20:47:38;;;;;;;2.23;1.07;;;;;;;;;;10366870;28;20065;-79
2022/08/06 20:52:39;;;;;;;1.38;1.00;;;;;;;;;;10362487;28;20276;-79
2022/08/06 20:57:40;;;;;;;1.40;1.00;;;;;;;;;;10347410;28;20533;-79
2022/08/06 21:02:41;;;;;;;1.40;1.25;;;;;;;;;;10361507;28;20056;-79
2022/08/06 21:07:42;;;;;;;2.78;1.10;;;;;;;;;;10364339;28;20061;-77
2022/08/06 21:12:42;;;;;;;1.08;0.90;;;;;;;;;;10371962;28;20050;-77
2022/08/06 21:17:43;;;;;;;2.00;0.93;;;;;;;;;;10363480;28;20042;-78
2022/08/06 21:22:44;;;;;;;2.65;1.13;;;;;;;;;;10359189;28;20061;-80
2022/08/06 21:27:45;;;;;;;1.67;1.10;;;;;;;;;;10354902;28;20061;-79
2022/08/06 21:32:46;;;;;;;1.97;1.13;;;;;;;;;;10359070;28;20048;-80
2022/08/06 21:37:46;;;;;;;1.08;0.98;;;;;;;;;;10350013;28;20041;-79
2022/08/06 21:42:49;;;;;;;1.25;0.95;;;;;;;;;;10361806;28;20050;-77
2022/08/06 21:47:49;;;;;;;0.90;0.80;;;;;;;;;;10344730;28;20054;-78
2022/08/06 21:52:50;;;;;;;1.15;0.90;;;;;;;;;;10352113;28;20057;-79
2022/08/06 21:57:50;;;;;;;1.08;0.70;;;;;;;;;;10348181;28;20044;-77
2022/08/06 22:02:51;;;;;;;0.73;0.73;;;;;;;;;;10361311;28;20053;-78
2022/08/06 22:07:51;;;;;;;1.03;0.80;;;;;;;;;;10355640;28;20409;-79
2022/08/06 22:12:52;;;;;;;1.13;0.77;;;;;;;;;;10353192;28;20326;-78
2022/08/06 22:17:52;;;;;;;2.53;1.10;;;;;;;;;;10356392;28;20493;-80
2022/08/06 22:22:54;;;;;;;1.35;1.10;;;;;;;;;;10348508;28;20133;-78
2022/08/06 22:27:54;;;;;;;2.22;1.20;;;;;;;;;;10360616;28;20058;-78
2022/08/06 22:32:55;;;;;;;1.15;1.00;;;;;;;;;;10352917;28;20050;-79
2022/08/06 22:37:55;;;;;;;2.88;0.82;;;;;;;;;;10353964;28;20057;-78
2022/08/06 22:42:56;;;;;;;0.95;0.85;;;;;;;;;;10361055;28;20087;-78
2022/08/06 22:47:57;;;;;;;1.80;0.90;;;;;;;;;;10327405;28;20108;-77
2022/08/06 22:52:57;;;;;;;1.08;0.80;;;;;;;;;;10356757;28;20108;-79
2022/08/06 22:57:58;;;;;;;1.02;0.80;;;;;;;;;;10357702;28;20053;-78
2022/08/06 23:02:59;;;;;;;2.25;0.70;;;;;;;;;;10356655;28;20042;-79
2022/08/06 23:07:59;;;;;;;2.03;0.80;;;;;;;;;;10347825;28;20352;-78
2022/08/06 23:12:59;;;;;;;1.47;0.67;;;;;;;;;;10356946;28;20118;-79
2022/08/06 23:18:00;;;;;;;0.90;0.80;;;;;;;;;;10349086;28;20284;-78
2022/08/06 23:23:00;;;;;;;1.73;0.87;;;;;;;;;;10346211;28;20045;-79
2022/08/06 23:28:01;;;;;;;1.20;0.80;;;;;;;;;;10358134;28;20745;-78
2022/08/06 23:33:01;;;;;;;1.00;0.90;;;;;;;;;;10353682;28;20041;-79
2022/08/06 23:38:03;;;;;;;1.00;0.90;;;;;;;;;;10366259;28;20057;-79
2022/08/06 23:43:03;;;;;;;1.40;0.90;;;;;;;;;;10353611;28;20057;-78
2022/08/06 23:48:04;;;;;;;1.73;0.90;;;;;;;;;;10366322;28;20057;-79
2022/08/06 23:53:04;;;;;;;0.80;0.80;;;;;;;;;;10369062;28;20328;-77
2022/08/06 23:58:05;;;;;;;1.37;0.90;;;;;;;;;;10407215;28;20104;-79
